sensor_id;sensor_type;location;lat;lon;timestamp;temperature;humidity
25933;DHT22;13731;51.166;4.474;2023-01-09T00:00:40;6.20;99.90
25933;DHT22;13731;51.166;4.474;2023-01-09T00:03:06;6.30;99.90
25933;DHT22;13731;51.166;4.474;2023-01-09T00:05:31;6.20;99.90
25933;DHT22;13731;51.166;4.474;2023-01-09T00:07:57;6.20;99.90
25933;DHT22;13731;51.166;4.474;2023-01-09T00:10:23;6.20;99.90
25933;DHT22;13731;51.166;4.474;2023-01-09T00:12:49;6.20;99.90
25933;DHT22;13731;51.166;4.474;2023-01-09T00:15:15;6.10;99.90
25933;DHT22;13731;51.166;4.474;2023-01-09T00:17:41;6.10;99.90
25933;DHT22;13731;51.166;4.474;2023-01-09T00:20:08;6.10;99.90
25933;DHT22;13731;51.166;4.474;2023-01-09T00:22:36;6.00;99.90
25933;DHT22;13731;51.166;4.474;2023-01-09T00:25:02;6.00;99.90
25933;DHT22;13731;51.166;4.474;2023-01-09T00:27:32;5.90;99.90
25933;DHT22;13731;51.166;4.474;2023-01-09T00:29:59;5.90;99.90
25933;DHT22;13731;51.166;4.474;2023-01-09T00:32:26;5.90;99.90
25933;DHT22;13731;51.166;4.474;2023-01-09T00:34:53;5.90;99.90
25933;DHT22;13731;51.166;4.474;2023-01-09T00:37:19;5.90;99.90
25933;DHT22;13731;51.166;4.474;2023-01-09T00:39:45;5.90;99.90
25933;DHT22;13731;51.166;4.474;2023-01-09T00:42:19;5.90;99.90
25933;DHT22;13731;51.166;4.474;2023-01-09T00:44:50;5.80;99.90
25933;DHT22;13731;51.166;4.474;2023-01-09T00:47:23;5.80;99.90
25933;DHT22;13731;51.166;4.474;2023-01-09T00:49:52;5.80;99.90
25933;DHT22;13731;51.166;4.474;2023-01-09T00:52:20;5.70;99.90
25933;DHT22;13731;51.166;4.474;2023-01-09T00:54:47;5.70;99.90
25933;DHT22;13731;51.166;4.474;2023-01-09T00:57:13;5.70;99.90
25933;DHT22;13731;51.166;4.474;2023-01-09T00:59:40;5.70;99.90
25933;DHT22;13731;51.166;4.474;2023-01-09T01:02:07;5.70;99.90
25933;DHT22;13731;51.166;4.474;2023-01-09T01:04:33;5.70;99.90
25933;DHT22;13731;51.166;4.474;2023-01-09T01:07:17;5.70;99.90
25933;DHT22;13731;51.166;4.474;2023-01-09T01:10:03;5.70;99.90
25933;DHT22;13731;51.166;4.474;2023-01-09T01:12:29;5.70;99.90
25933;DHT22;13731;51.166;4.474;2023-01-09T01:14:55;5.60;99.90
25933;DHT22;13731;51.166;4.474;2023-01-09T01:17:21;5.70;99.90
25933;DHT22;13731;51.166;4.474;2023-01-09T01:19:47;5.70;99.90
25933;DHT22;13731;51.166;4.474;2023-01-09T01:22:13;5.70;99.90
25933;DHT22;13731;51.166;4.474;2023-01-09T01:24:39;5.80;99.90
25933;DHT22;13731;51.166;4.474;2023-01-09T01:27:04;5.80;99.90
25933;DHT22;13731;51.166;4.474;2023-01-09T01:29:30;5.80;99.90
25933;DHT22;13731;51.166;4.474;2023-01-09T01:31:56;5.70;99.90
25933;DHT22;13731;51.166;4.474;2023-01-09T01:34:22;5.70;99.90
25933;DHT22;13731;51.166;4.474;2023-01-09T01:36:48;5.70;99.90
25933;DHT22;13731;51.166;4.474;2023-01-09T01:39:14;5.70;99.90
25933;DHT22;13731;51.166;4.474;2023-01-09T01:41:40;5.80;99.90
25933;DHT22;13731;51.166;4.474;2023-01-09T01:47:11;5.80;99.90
25933;DHT22;13731;51.166;4.474;2023-01-09T01:49:37;5.80;99.90
25933;DHT22;13731;51.166;4.474;2023-01-09T01:52:03;5.80;99.90
25933;DHT22;13731;51.166;4.474;2023-01-09T01:54:31;5.70;99.90
25933;DHT22;13731;51.166;4.474;2023-01-09T01:56:59;5.80;99.90
25933;DHT22;13731;51.166;4.474;2023-01-09T01:59:51;5.80;99.90
25933;DHT22;13731;51.166;4.474;2023-01-09T02:02:25;5.80;99.90
25933;DHT22;13731;51.166;4.474;2023-01-09T02:04:54;5.80;99.90
25933;DHT22;13731;51.166;4.474;2023-01-09T02:07:20;5.80;99.90
25933;DHT22;13731;51.166;4.474;2023-01-09T02:09:46;5.80;99.90
25933;DHT22;13731;51.166;4.474;2023-01-09T02:12:26;5.80;99.90
25933;DHT22;13731;51.166;4.474;2023-01-09T02:15:03;5.80;99.90
25933;DHT22;13731;51.166;4.474;2023-01-09T02:42:57;5.90;99.90
25933;DHT22;13731;51.166;4.474;2023-01-09T02:45:25;5.90;99.90
25933;DHT22;13731;51.166;4.474;2023-01-09T02:47:50;5.90;99.90
25933;DHT22;13731;51.166;4.474;2023-01-09T02:50:25;6.00;99.90
25933;DHT22;13731;51.166;4.474;2023-01-09T02:59:26;6.20;99.90
25933;DHT22;13731;51.166;4.474;2023-01-09T03:02:06;6.20;99.90
25933;DHT22;13731;51.166;4.474;2023-01-09T03:07:16;6.30;99.90
25933;DHT22;13731;51.166;4.474;2023-01-09T03:09:47;6.30;99.90
25933;DHT22;13731;51.166;4.474;2023-01-09T03:12:23;6.30;99.90
25933;DHT22;13731;51.166;4.474;2023-01-09T03:14:54;6.40;99.90
25933;DHT22;13731;51.166;4.474;2023-01-09T03:17:27;6.40;99.90
25933;DHT22;13731;51.166;4.474;2023-01-09T03:19:55;6.50;99.90
25933;DHT22;13731;51.166;4.474;2023-01-09T03:22:22;6.50;99.90
25933;DHT22;13731;51.166;4.474;2023-01-09T03:24:49;6.50;99.90
25933;DHT22;13731;51.166;4.474;2023-01-09T03:27:14;6.50;99.90
25933;DHT22;13731;51.166;4.474;2023-01-09T03:29:40;6.60;99.90
25933;DHT22;13731;51.166;4.474;2023-01-09T03:32:06;6.60;99.90
25933;DHT22;13731;51.166;4.474;2023-01-09T03:34:32;6.70;99.90
25933;DHT22;13731;51.166;4.474;2023-01-09T03:36:58;6.70;99.90
25933;DHT22;13731;51.166;4.474;2023-01-09T03:39:24;6.70;99.90
25933;DHT22;13731;51.166;4.474;2023-01-09T03:41:50;6.80;99.90
25933;DHT22;13731;51.166;4.474;2023-01-09T03:44:15;6.90;99.90
25933;DHT22;13731;51.166;4.474;2023-01-09T03:46:41;6.90;99.90
25933;DHT22;13731;51.166;4.474;2023-01-09T03:49:07;6.90;99.90
25933;DHT22;13731;51.166;4.474;2023-01-09T03:51:33;6.90;99.90
25933;DHT22;13731;51.166;4.474;2023-01-09T03:53:59;6.80;99.90
25933;DHT22;13731;51.166;4.474;2023-01-09T03:56:24;6.90;99.90
25933;DHT22;13731;51.166;4.474;2023-01-09T03:58:50;6.90;99.90
25933;DHT22;13731;51.166;4.474;2023-01-09T04:01:18;7.00;99.90
25933;DHT22;13731;51.166;4.474;2023-01-09T04:03:43;6.90;99.90
25933;DHT22;13731;51.166;4.474;2023-01-09T04:06:09;7.00;99.90
25933;DHT22;13731;51.166;4.474;2023-01-09T04:08:35;7.00;99.90
25933;DHT22;13731;51.166;4.474;2023-01-09T04:11:01;7.00;99.90
25933;DHT22;13731;51.166;4.474;2023-01-09T04:13:26;7.00;99.90
25933;DHT22;13731;51.166;4.474;2023-01-09T04:15:52;7.10;99.90
25933;DHT22;13731;51.166;4.474;2023-01-09T04:18:18;7.10;99.90
25933;DHT22;13731;51.166;4.474;2023-01-09T04:20:46;7.00;99.90
25933;DHT22;13731;51.166;4.474;2023-01-09T04:23:12;7.10;99.90
25933;DHT22;13731;51.166;4.474;2023-01-09T04:25:38;7.10;99.90
25933;DHT22;13731;51.166;4.474;2023-01-09T04:28:04;7.10;99.90
25933;DHT22;13731;51.166;4.474;2023-01-09T04:30:30;7.10;99.90
25933;DHT22;13731;51.166;4.474;2023-01-09T04:32:55;7.10;99.90
25933;DHT22;13731;51.166;4.474;2023-01-09T04:35:21;7.10;99.90
25933;DHT22;13731;51.166;4.474;2023-01-09T04:37:47;7.10;99.90
25933;DHT22;13731;51.166;4.474;2023-01-09T04:40:13;7.10;99.90
25933;DHT22;13731;51.166;4.474;2023-01-09T04:42:40;7.20;99.90
25933;DHT22;13731;51.166;4.474;2023-01-09T04:45:07;7.10;99.90
25933;DHT22;13731;51.166;4.474;2023-01-09T04:47:34;7.10;99.90
25933;DHT22;13731;51.166;4.474;2023-01-09T04:50:00;7.20;99.90
25933;DHT22;13731;51.166;4.474;2023-01-09T04:52:26;7.20;99.90
25933;DHT22;13731;51.166;4.474;2023-01-09T04:54:52;7.20;99.90
25933;DHT22;13731;51.166;4.474;2023-01-09T04:57:18;7.30;99.90
25933;DHT22;13731;51.166;4.474;2023-01-09T04:59:44;7.40;99.90
25933;DHT22;13731;51.166;4.474;2023-01-09T05:02:10;7.40;99.90
25933;DHT22;13731;51.166;4.474;2023-01-09T05:04:36;7.40;99.90
25933;DHT22;13731;51.166;4.474;2023-01-09T05:07:02;7.50;99.90
25933;DHT22;13731;51.166;4.474;2023-01-09T05:09:28;7.50;99.90
25933;DHT22;13731;51.166;4.474;2023-01-09T05:11:54;7.60;99.90
25933;DHT22;13731;51.166;4.474;2023-01-09T05:14:20;7.60;99.90
25933;DHT22;13731;51.166;4.474;2023-01-09T05:16:46;7.60;99.90
25933;DHT22;13731;51.166;4.474;2023-01-09T05:19:12;7.60;99.90
25933;DHT22;13731;51.166;4.474;2023-01-09T05:21:37;7.60;99.90
25933;DHT22;13731;51.166;4.474;2023-01-09T05:24:04;7.60;99.90
25933;DHT22;13731;51.166;4.474;2023-01-09T05:26:30;7.70;99.90
25933;DHT22;13731;51.166;4.474;2023-01-09T05:28:56;7.70;99.90
25933;DHT22;13731;51.166;4.474;2023-01-09T05:31:23;7.70;99.90
25933;DHT22;13731;51.166;4.474;2023-01-09T05:33:49;7.70;99.90
25933;DHT22;13731;51.166;4.474;2023-01-09T05:36:15;7.60;99.90
25933;DHT22;13731;51.166;4.474;2023-01-09T05:38:41;7.50;99.90
25933;DHT22;13731;51.166;4.474;2023-01-09T05:41:07;7.40;99.90
25933;DHT22;13731;51.166;4.474;2023-01-09T05:43:33;7.40;99.90
25933;DHT22;13731;51.166;4.474;2023-01-09T05:45:59;7.40;99.90
25933;DHT22;13731;51.166;4.474;2023-01-09T05:48:25;7.50;99.90
25933;DHT22;13731;51.166;4.474;2023-01-09T05:50:51;7.50;99.90
25933;DHT22;13731;51.166;4.474;2023-01-09T05:53:17;7.50;99.90
25933;DHT22;13731;51.166;4.474;2023-01-09T05:55:43;7.60;99.90
25933;DHT22;13731;51.166;4.474;2023-01-09T05:58:09;7.50;99.90
25933;DHT22;13731;51.166;4.474;2023-01-09T06:00:34;7.50;99.90
25933;DHT22;13731;51.166;4.474;2023-01-09T06:03:00;7.50;99.90
25933;DHT22;13731;51.166;4.474;2023-01-09T06:05:26;7.50;99.90
25933;DHT22;13731;51.166;4.474;2023-01-09T06:07:52;7.50;99.90
25933;DHT22;13731;51.166;4.474;2023-01-09T06:10:18;7.50;99.90
25933;DHT22;13731;51.166;4.474;2023-01-09T06:12:48;7.50;99.90
25933;DHT22;13731;51.166;4.474;2023-01-09T06:15:15;7.50;99.90
25933;DHT22;13731;51.166;4.474;2023-01-09T06:17:42;7.40;99.90
25933;DHT22;13731;51.166;4.474;2023-01-09T06:20:09;7.30;99.90
25933;DHT22;13731;51.166;4.474;2023-01-09T06:22:35;7.30;99.90
25933;DHT22;13731;51.166;4.474;2023-01-09T06:25:01;7.30;99.90
25933;DHT22;13731;51.166;4.474;2023-01-09T06:27:26;7.20;99.90
25933;DHT22;13731;51.166;4.474;2023-01-09T06:29:52;7.30;99.90
25933;DHT22;13731;51.166;4.474;2023-01-09T06:32:18;7.30;99.90
25933;DHT22;13731;51.166;4.474;2023-01-09T06:34:44;7.30;99.90
25933;DHT22;13731;51.166;4.474;2023-01-09T06:37:10;7.30;99.90
25933;DHT22;13731;51.166;4.474;2023-01-09T06:39:36;7.30;99.90
25933;DHT22;13731;51.166;4.474;2023-01-09T06:42:02;7.30;99.90
25933;DHT22;13731;51.166;4.474;2023-01-09T06:44:28;7.30;99.90
25933;DHT22;13731;51.166;4.474;2023-01-09T06:46:54;7.20;99.90
25933;DHT22;13731;51.166;4.474;2023-01-09T06:49:20;7.20;99.90
25933;DHT22;13731;51.166;4.474;2023-01-09T06:51:50;7.30;99.90
25933;DHT22;13731;51.166;4.474;2023-01-09T06:54:17;7.30;99.90
25933;DHT22;13731;51.166;4.474;2023-01-09T06:56:43;7.30;99.90
25933;DHT22;13731;51.166;4.474;2023-01-09T06:59:10;7.40;99.90
25933;DHT22;13731;51.166;4.474;2023-01-09T07:01:36;7.40;99.90
25933;DHT22;13731;51.166;4.474;2023-01-09T07:04:07;7.40;99.90
25933;DHT22;13731;51.166;4.474;2023-01-09T07:06:37;7.30;99.90
25933;DHT22;13731;51.166;4.474;2023-01-09T07:09:03;7.40;99.90
25933;DHT22;13731;51.166;4.474;2023-01-09T07:11:31;7.30;99.90
25933;DHT22;13731;51.166;4.474;2023-01-09T07:13:57;7.30;99.90
25933;DHT22;13731;51.166;4.474;2023-01-09T07:16:22;7.50;99.90
25933;DHT22;13731;51.166;4.474;2023-01-09T07:18:48;7.60;99.90
25933;DHT22;13731;51.166;4.474;2023-01-09T07:21:14;7.50;99.90
25933;DHT22;13731;51.166;4.474;2023-01-09T07:23:40;7.60;99.90
25933;DHT22;13731;51.166;4.474;2023-01-09T07:26:06;7.60;99.90
25933;DHT22;13731;51.166;4.474;2023-01-09T07:28:31;7.60;99.90
25933;DHT22;13731;51.166;4.474;2023-01-09T07:30:58;7.60;99.90
25933;DHT22;13731;51.166;4.474;2023-01-09T07:33:26;7.50;99.90
25933;DHT22;13731;51.166;4.474;2023-01-09T07:35:52;7.40;99.90
25933;DHT22;13731;51.166;4.474;2023-01-09T07:38:18;7.40;99.90
25933;DHT22;13731;51.166;4.474;2023-01-09T07:40:44;7.30;99.90
25933;DHT22;13731;51.166;4.474;2023-01-09T07:43:10;7.40;99.90
25933;DHT22;13731;51.166;4.474;2023-01-09T07:45:36;7.50;99.90
25933;DHT22;13731;51.166;4.474;2023-01-09T07:48:01;7.50;99.90
25933;DHT22;13731;51.166;4.474;2023-01-09T07:50:27;7.60;99.90
25933;DHT22;13731;51.166;4.474;2023-01-09T07:52:53;7.50;99.90
25933;DHT22;13731;51.166;4.474;2023-01-09T07:55:19;7.50;99.90
25933;DHT22;13731;51.166;4.474;2023-01-09T07:57:49;7.50;99.90
25933;DHT22;13731;51.166;4.474;2023-01-09T08:00:17;7.50;99.90
25933;DHT22;13731;51.166;4.474;2023-01-09T08:02:43;7.50;99.90
25933;DHT22;13731;51.166;4.474;2023-01-09T08:05:09;7.60;99.90
25933;DHT22;13731;51.166;4.474;2023-01-09T08:07:40;7.50;99.90
25933;DHT22;13731;51.166;4.474;2023-01-09T08:10:06;7.60;99.90
25933;DHT22;13731;51.166;4.474;2023-01-09T08:12:32;7.60;99.90
25933;DHT22;13731;51.166;4.474;2023-01-09T08:14:58;7.70;99.90
25933;DHT22;13731;51.166;4.474;2023-01-09T08:17:24;7.70;99.90
25933;DHT22;13731;51.166;4.474;2023-01-09T08:19:50;7.70;99.90
25933;DHT22;13731;51.166;4.474;2023-01-09T08:22:15;7.70;99.90
25933;DHT22;13731;51.166;4.474;2023-01-09T08:24:41;7.70;99.90
25933;DHT22;13731;51.166;4.474;2023-01-09T08:27:07;7.70;99.90
25933;DHT22;13731;51.166;4.474;2023-01-09T08:29:33;7.70;99.90
25933;DHT22;13731;51.166;4.474;2023-01-09T08:31:59;7.90;99.90
25933;DHT22;13731;51.166;4.474;2023-01-09T08:34:24;8.00;99.90
25933;DHT22;13731;51.166;4.474;2023-01-09T08:36:50;8.10;99.90
25933;DHT22;13731;51.166;4.474;2023-01-09T08:39:18;8.30;99.90
25933;DHT22;13731;51.166;4.474;2023-01-09T08:41:43;8.30;99.90
25933;DHT22;13731;51.166;4.474;2023-01-09T08:44:28;8.20;99.90
25933;DHT22;13731;51.166;4.474;2023-01-09T08:47:15;8.30;99.90
25933;DHT22;13731;51.166;4.474;2023-01-09T08:49:43;8.00;99.90
25933;DHT22;13731;51.166;4.474;2023-01-09T08:52:10;8.10;99.90
25933;DHT22;13731;51.166;4.474;2023-01-09T08:54:38;8.20;99.90
25933;DHT22;13731;51.166;4.474;2023-01-09T08:57:05;8.40;99.90
25933;DHT22;13731;51.166;4.474;2023-01-09T08:59:31;8.30;99.90
25933;DHT22;13731;51.166;4.474;2023-01-09T09:01:58;8.40;99.90
25933;DHT22;13731;51.166;4.474;2023-01-09T09:04:24;8.40;99.90
25933;DHT22;13731;51.166;4.474;2023-01-09T09:06:50;8.20;99.90
25933;DHT22;13731;51.166;4.474;2023-01-09T09:09:16;8.30;99.90
25933;DHT22;13731;51.166;4.474;2023-01-09T09:11:42;8.30;99.90
25933;DHT22;13731;51.166;4.474;2023-01-09T09:14:08;8.20;99.90
25933;DHT22;13731;51.166;4.474;2023-01-09T09:17:12;8.20;99.90
25933;DHT22;13731;51.166;4.474;2023-01-09T09:19:38;8.20;99.90
25933;DHT22;13731;51.166;4.474;2023-01-09T09:22:05;8.10;99.90
25933;DHT22;13731;51.166;4.474;2023-01-09T09:24:31;8.20;99.90
25933;DHT22;13731;51.166;4.474;2023-01-09T09:26:57;8.20;99.90
25933;DHT22;13731;51.166;4.474;2023-01-09T09:29:23;8.10;99.90
25933;DHT22;13731;51.166;4.474;2023-01-09T09:31:49;8.00;99.90
25933;DHT22;13731;51.166;4.474;2023-01-09T09:34:15;8.10;99.90
25933;DHT22;13731;51.166;4.474;2023-01-09T09:36:41;8.10;99.90
25933;DHT22;13731;51.166;4.474;2023-01-09T09:39:06;8.10;99.90
25933;DHT22;13731;51.166;4.474;2023-01-09T09:53:17;8.40;99.90
25933;DHT22;13731;51.166;4.474;2023-01-09T09:55:47;8.50;99.90
25933;DHT22;13731;51.166;4.474;2023-01-09T10:00:51;8.50;99.90
25933;DHT22;13731;51.166;4.474;2023-01-09T10:03:36;8.60;99.90
25933;DHT22;13731;51.166;4.474;2023-01-09T10:06:16;8.60;99.90
25933;DHT22;13731;51.166;4.474;2023-01-09T10:11:16;8.70;99.90
25933;DHT22;13731;51.166;4.474;2023-01-09T10:13:45;8.70;99.90
25933;DHT22;13731;51.166;4.474;2023-01-09T10:19:07;8.80;1.00
25933;DHT22;13731;51.166;4.474;2023-01-09T10:21:47;9.10;1.00
25933;DHT22;13731;51.166;4.474;2023-01-09T10:27:37;9.50;99.90
25933;DHT22;13731;51.166;4.474;2023-01-09T10:30:31;9.40;25.40
25933;DHT22;13731;51.166;4.474;2023-01-09T10:38:32;9.50;1.00
25933;DHT22;13731;51.166;4.474;2023-01-09T10:43:59;8.90;36.80
25933;DHT22;13731;51.166;4.474;2023-01-09T10:46:57;8.70;1.00
25933;DHT22;13731;51.166;4.474;2023-01-09T10:49:25;8.70;1.00
25933;DHT22;13731;51.166;4.474;2023-01-09T10:54:50;9.00;1.00
25933;DHT22;13731;51.166;4.474;2023-01-09T10:57:34;9.10;99.90
25933;DHT22;13731;51.166;4.474;2023-01-09T11:00:04;9.20;99.90
25933;DHT22;13731;51.166;4.474;2023-01-09T11:02:33;9.50;1.00
25933;DHT22;13731;51.166;4.474;2023-01-09T11:04:59;9.30;1.00
25933;DHT22;13731;51.166;4.474;2023-01-09T11:07:28;9.00;99.90
25933;DHT22;13731;51.166;4.474;2023-01-09T11:10:02;9.10;99.90
25933;DHT22;13731;51.166;4.474;2023-01-09T11:12:31;9.20;99.90
25933;DHT22;13731;51.166;4.474;2023-01-09T11:15:26;9.40;1.00
25933;DHT22;13731;51.166;4.474;2023-01-09T11:18:15;9.30;1.00
25933;DHT22;13731;51.166;4.474;2023-01-09T11:20:41;9.40;1.00
25933;DHT22;13731;51.166;4.474;2023-01-09T11:23:29;9.10;99.90
25933;DHT22;13731;51.166;4.474;2023-01-09T11:25:57;9.00;1.00
25933;DHT22;13731;51.166;4.474;2023-01-09T11:28:24;8.90;1.00
25933;DHT22;13731;51.166;4.474;2023-01-09T11:31:00;9.10;1.00
25933;DHT22;13731;51.166;4.474;2023-01-09T11:33:35;9.20;99.90
25933;DHT22;13731;51.166;4.474;2023-01-09T11:38:30;9.50;1.00
25933;DHT22;13731;51.166;4.474;2023-01-09T11:41:02;9.50;1.00
25933;DHT22;13731;51.166;4.474;2023-01-09T11:43:32;9.50;99.90
25933;DHT22;13731;51.166;4.474;2023-01-09T11:46:02;9.50;1.00
25933;DHT22;13731;51.166;4.474;2023-01-09T11:48:38;9.60;99.90
25933;DHT22;13731;51.166;4.474;2023-01-09T11:51:16;9.50;1.00
25933;DHT22;13731;51.166;4.474;2023-01-09T11:54:01;9.40;99.90
25933;DHT22;13731;51.166;4.474;2023-01-09T11:56:30;9.30;99.90
25933;DHT22;13731;51.166;4.474;2023-01-09T11:58:58;9.50;99.90
25933;DHT22;13731;51.166;4.474;2023-01-09T12:16:34;10.00;99.90
25933;DHT22;13731;51.166;4.474;2023-01-09T12:22:11;9.90;1.00
25933;DHT22;13731;51.166;4.474;2023-01-09T12:25:16;9.80;57.30
25933;DHT22;13731;51.166;4.474;2023-01-09T12:33:23;11.00;1.00
25933;DHT22;13731;51.166;4.474;2023-01-09T12:41:58;10.20;99.90
25933;DHT22;13731;51.166;4.474;2023-01-09T12:49:36;9.70;1.00
25933;DHT22;13731;51.166;4.474;2023-01-09T12:52:18;9.80;1.00
25933;DHT22;13731;51.166;4.474;2023-01-09T12:54:52;10.00;1.00
25933;DHT22;13731;51.166;4.474;2023-01-09T12:57:26;9.80;99.90
25933;DHT22;13731;51.166;4.474;2023-01-09T13:00:14;10.00;86.70
25933;DHT22;13731;51.166;4.474;2023-01-09T13:05:51;9.80;99.90
25933;DHT22;13731;51.166;4.474;2023-01-09T13:16:32;9.90;99.70
25933;DHT22;13731;51.166;4.474;2023-01-09T13:21:48;9.50;1.00
25933;DHT22;13731;51.166;4.474;2023-01-09T13:24:28;9.50;99.90
25933;DHT22;13731;51.166;4.474;2023-01-09T13:27:08;9.50;1.00
25933;DHT22;13731;51.166;4.474;2023-01-09T13:29:39;9.50;1.00
25933;DHT22;13731;51.166;4.474;2023-01-09T13:34:51;9.50;99.90
25933;DHT22;13731;51.166;4.474;2023-01-09T13:37:32;9.60;1.00
25933;DHT22;13731;51.166;4.474;2023-01-09T13:40:23;10.10;99.90
25933;DHT22;13731;51.166;4.474;2023-01-09T13:43:02;10.50;99.90
25933;DHT22;13731;51.166;4.474;2023-01-09T13:45:32;10.70;99.90
25933;DHT22;13731;51.166;4.474;2023-01-09T13:50:40;10.70;1.00
25933;DHT22;13731;51.166;4.474;2023-01-09T13:56:10;10.60;99.90
25933;DHT22;13731;51.166;4.474;2023-01-09T14:09:47;10.70;99.90
25933;DHT22;13731;51.166;4.474;2023-01-09T14:12:14;10.40;1.00
25933;DHT22;13731;51.166;4.474;2023-01-09T14:14:44;10.30;1.00
25933;DHT22;13731;51.166;4.474;2023-01-09T14:17:16;10.00;1.00
25933;DHT22;13731;51.166;4.474;2023-01-09T14:19:43;9.90;1.00
25933;DHT22;13731;51.166;4.474;2023-01-09T14:22:23;9.70;99.90
25933;DHT22;13731;51.166;4.474;2023-01-09T14:24:50;9.50;1.00
25933;DHT22;13731;51.166;4.474;2023-01-09T14:35:31;9.40;1.00
25933;DHT22;13731;51.166;4.474;2023-01-09T14:38:10;9.50;99.90
25933;DHT22;13731;51.166;4.474;2023-01-09T14:40:37;9.40;1.00
25933;DHT22;13731;51.166;4.474;2023-01-09T14:43:20;9.40;99.90
25933;DHT22;13731;51.166;4.474;2023-01-09T14:45:48;9.40;70.70
25933;DHT22;13731;51.166;4.474;2023-01-09T14:48:15;9.60;1.00
25933;DHT22;13731;51.166;4.474;2023-01-09T14:50:48;9.60;1.00
25933;DHT22;13731;51.166;4.474;2023-01-09T14:53:22;9.70;99.90
25933;DHT22;13731;51.166;4.474;2023-01-09T14:58:25;9.50;1.00
25933;DHT22;13731;51.166;4.474;2023-01-09T15:00:56;9.60;1.00
25933;DHT22;13731;51.166;4.474;2023-01-09T15:03:27;9.70;99.90
25933;DHT22;13731;51.166;4.474;2023-01-09T15:05:54;9.60;99.90
25933;DHT22;13731;51.166;4.474;2023-01-09T15:08:23;9.60;99.90
25933;DHT22;13731;51.166;4.474;2023-01-09T15:10:52;9.70;1.00
25933;DHT22;13731;51.166;4.474;2023-01-09T15:13:43;9.60;99.90
25933;DHT22;13731;51.166;4.474;2023-01-09T15:16:36;9.60;1.00
25933;DHT22;13731;51.166;4.474;2023-01-09T15:19:05;9.30;99.90
25933;DHT22;13731;51.166;4.474;2023-01-09T15:21:32;9.40;99.90
25933;DHT22;13731;51.166;4.474;2023-01-09T15:26:51;8.90;1.00
25933;DHT22;13731;51.166;4.474;2023-01-09T15:29:17;8.50;99.90
25933;DHT22;13731;51.166;4.474;2023-01-09T15:31:52;8.20;99.90
25933;DHT22;13731;51.166;4.474;2023-01-09T15:34:21;8.00;1.00
25933;DHT22;13731;51.166;4.474;2023-01-09T15:36:48;7.90;99.90
25933;DHT22;13731;51.166;4.474;2023-01-09T15:39:28;7.80;99.90
25933;DHT22;13731;51.166;4.474;2023-01-09T15:41:56;7.80;1.00
25933;DHT22;13731;51.166;4.474;2023-01-09T15:44:44;7.70;1.00
25933;DHT22;13731;51.166;4.474;2023-01-09T15:47:19;7.80;1.00
25933;DHT22;13731;51.166;4.474;2023-01-09T15:49:46;7.80;1.00
25933;DHT22;13731;51.166;4.474;2023-01-09T15:52:13;7.90;1.00
25933;DHT22;13731;51.166;4.474;2023-01-09T15:54:42;7.80;1.00
25933;DHT22;13731;51.166;4.474;2023-01-09T15:57:30;7.80;1.00
25933;DHT22;13731;51.166;4.474;2023-01-09T16:00:22;7.70;1.00
25933;DHT22;13731;51.166;4.474;2023-01-09T16:02:55;7.70;1.00
25933;DHT22;13731;51.166;4.474;2023-01-09T16:05:51;7.70;1.00
25933;DHT22;13731;51.166;4.474;2023-01-09T16:08:24;7.60;1.00
25933;DHT22;13731;51.166;4.474;2023-01-09T16:10:53;7.60;1.00
25933;DHT22;13731;51.166;4.474;2023-01-09T16:13:21;7.60;1.00
25933;DHT22;13731;51.166;4.474;2023-01-09T16:15:49;7.70;1.00
25933;DHT22;13731;51.166;4.474;2023-01-09T16:18:17;7.70;99.90
25933;DHT22;13731;51.166;4.474;2023-01-09T16:20:44;7.70;1.00
25933;DHT22;13731;51.166;4.474;2023-01-09T16:23:36;7.70;1.00
25933;DHT22;13731;51.166;4.474;2023-01-09T16:26:13;7.80;1.00
25933;DHT22;13731;51.166;4.474;2023-01-09T16:28:43;7.90;1.00
25933;DHT22;13731;51.166;4.474;2023-01-09T16:31:28;7.90;99.90
25933;DHT22;13731;51.166;4.474;2023-01-09T16:34:05;7.70;1.00
25933;DHT22;13731;51.166;4.474;2023-01-09T16:36:35;7.60;1.00
25933;DHT22;13731;51.166;4.474;2023-01-09T16:39:01;7.60;1.00
25933;DHT22;13731;51.166;4.474;2023-01-09T16:41:31;7.60;1.00
25933;DHT22;13731;51.166;4.474;2023-01-09T16:44:15;7.50;1.00
25933;DHT22;13731;51.166;4.474;2023-01-09T16:46:44;7.50;1.00
25933;DHT22;13731;51.166;4.474;2023-01-09T16:49:21;7.40;1.00
25933;DHT22;13731;51.166;4.474;2023-01-09T16:51:49;7.50;1.00
25933;DHT22;13731;51.166;4.474;2023-01-09T16:54:15;7.60;1.00
25933;DHT22;13731;51.166;4.474;2023-01-09T16:56:44;7.60;1.00
25933;DHT22;13731;51.166;4.474;2023-01-09T16:59:17;7.50;1.00
25933;DHT22;13731;51.166;4.474;2023-01-09T17:01:50;7.60;1.00
25933;DHT22;13731;51.166;4.474;2023-01-09T17:04:16;7.60;1.00
25933;DHT22;13731;51.166;4.474;2023-01-09T17:06:45;7.70;1.00
25933;DHT22;13731;51.166;4.474;2023-01-09T17:09:14;7.60;1.00
25933;DHT22;13731;51.166;4.474;2023-01-09T17:11:41;7.60;1.00
25933;DHT22;13731;51.166;4.474;2023-01-09T17:14:09;7.60;1.00
25933;DHT22;13731;51.166;4.474;2023-01-09T17:16:36;7.60;1.00
25933;DHT22;13731;51.166;4.474;2023-01-09T17:19:03;7.70;1.00
25933;DHT22;13731;51.166;4.474;2023-01-09T17:21:29;7.70;1.00
25933;DHT22;13731;51.166;4.474;2023-01-09T17:23:56;7.60;1.00
25933;DHT22;13731;51.166;4.474;2023-01-09T17:26:43;7.60;1.00
25933;DHT22;13731;51.166;4.474;2023-01-09T17:29:28;7.50;1.00
25933;DHT22;13731;51.166;4.474;2023-01-09T17:31:55;7.50;1.00
25933;DHT22;13731;51.166;4.474;2023-01-09T17:34:21;7.60;1.00
25933;DHT22;13731;51.166;4.474;2023-01-09T17:36:48;7.60;1.00
25933;DHT22;13731;51.166;4.474;2023-01-09T17:39:15;7.50;1.00
25933;DHT22;13731;51.166;4.474;2023-01-09T17:41:41;7.40;1.00
25933;DHT22;13731;51.166;4.474;2023-01-09T17:44:09;7.50;1.00
25933;DHT22;13731;51.166;4.474;2023-01-09T17:46:38;7.40;1.00
25933;DHT22;13731;51.166;4.474;2023-01-09T17:49:05;7.30;1.00
25933;DHT22;13731;51.166;4.474;2023-01-09T17:51:31;7.20;33.10
25933;DHT22;13731;51.166;4.474;2023-01-09T17:53:57;7.10;61.50
25933;DHT22;13731;51.166;4.474;2023-01-09T17:56:29;7.20;63.10
25933;DHT22;13731;51.166;4.474;2023-01-09T17:58:56;7.20;40.70
25933;DHT22;13731;51.166;4.474;2023-01-09T18:01:22;7.10;41.90
25933;DHT22;13731;51.166;4.474;2023-01-09T18:03:48;7.20;48.90
25933;DHT22;13731;51.166;4.474;2023-01-09T18:06:17;7.20;13.80
25933;DHT22;13731;51.166;4.474;2023-01-09T18:08:43;7.10;30.10
25933;DHT22;13731;51.166;4.474;2023-01-09T18:11:16;7.10;51.40
25933;DHT22;13731;51.166;4.474;2023-01-09T18:13:43;7.10;96.70
25933;DHT22;13731;51.166;4.474;2023-01-09T18:16:15;7.00;99.90
25933;DHT22;13731;51.166;4.474;2023-01-09T18:18:42;7.00;99.90
25933;DHT22;13731;51.166;4.474;2023-01-09T18:21:16;7.10;99.90
25933;DHT22;13731;51.166;4.474;2023-01-09T18:23:43;7.10;99.90
25933;DHT22;13731;51.166;4.474;2023-01-09T18:26:09;7.10;95.10
25933;DHT22;13731;51.166;4.474;2023-01-09T18:28:36;7.10;78.10
25933;DHT22;13731;51.166;4.474;2023-01-09T18:31:03;7.10;33.80
25933;DHT22;13731;51.166;4.474;2023-01-09T18:33:29;7.20;1.00
25933;DHT22;13731;51.166;4.474;2023-01-09T18:35:55;7.20;1.00
25933;DHT22;13731;51.166;4.474;2023-01-09T18:38:20;7.40;1.00
25933;DHT22;13731;51.166;4.474;2023-01-09T18:40:46;7.50;1.00